Kezdőlap
METAR-TAF:

METAR-TAF

Repülőterek :

Zinder, Niger

földrajzi szélesség: 13-47N, földrajzi hosszúság: 008-59E, magasság: 452 m

Jelenlegi meteorológiai megfigyelések

A jelentés 27 perccel ezelõtt készült, 07:00 UTC
Nyugat-északnyugati szél 14 kt
Hőmérséklet 32°C
Páratartalom 46%
Légköri nyomás 1010 hPa
Látótávolság: 8000 m

METAR: DRZR 250700Z 29014KT 8000 NSC 32/19 Q1010

Idő: 08:27 (07:27 UTC)

Előrejelzés

A jelentés 2 órával és 27 perccel ezelõtt készült, 05:00 UTC
Az előrejelzés 25-én 06 óra UTC és 26-én 06 óra UTC között érvényes
Észak-északkeleti szél 8 kt
Látótávolság: 8000 m

TAF: DRZR 250500Z 2506/2606 02008KT 8000 NSC

Meteorológiai megfigyelések és előrejelzések több, mint 4000 repülőtéren (METAR és TAF jelentéseket).

A térképen piros és sárga pontok jelzik az elérhető meteorológiai állomásokat.

Mozgassa az egeret a pont fölött, hogy megjelenjen az állomás neve.

Azután kattintson az időjárási megfigyelések és előrejelzések megtekintéséhez.

A térkép megváltoztatása: kattintson a fekete keresztel jelölt zöld gombra ráközelítéshez, a vonallal jelölt zöld gombra távolításhoz, vagy a zöld nyilakra a szomszédos térképek eléréséhez.


METAR-TAF: